ホワイトホース の空港の天気 - METARとTAF

ホワイトホース国際空港 ( CYXY / YXY ) - カナダ ユーコン準州ホワイトホース
飛行場実況気象(Metar)
観測時間07/28 18:00 PDT (07/29 01:00 UTC)
風向・風速南南東 4m/s
視程10km以上
天気現象
少しの雲 雲底高度 1830m
全天の4割程度の雲 雲底高度 7320m
気温20℃
湿度43%
気圧1020.6hPa
METARCYXY 290100Z 16007KT 40SM FEW060 SCT240 20/07 A3008 RMK CU2CI1 SLP206 DENSITY ALT 3300FT
過去の天気等 Google飛行場航空写真 Wunderground天気予報

過去48時間のMETAR

飛行場予報(TAF)
発表時間: 7/28 16:39 PDT (7/28 23:39 UTC)
予報対象時間: 28日17時 PDT ~ 29日17時 PDT
風向・風速南南東 3m/s
視程10km以上
全天の4割程度の雲 雲底高度 1830m
28日21時 PDT から
風向・風速南 5m/s
視程10km以上
全天の8割程度の雲 雲底高度 1830m
29日1時 PDT から
風向・風速南南東 3m/s
視程10km以上
全天の4割程度の雲 雲底高度 2440m
29日12時 PDT から
風向・風速南南東 6m/s
視程10km以上
少しの雲 雲底高度 1830m
TAF CYXY 282339Z 2900/2924 16006KT P6SM SCT060
FM290400 18010KT P6SM BKN060
FM290800 16006KT P6SM SCT080
FM291900 15012KT P6SM FEW060 RMK NXT FCST BY 290600Z